createdAt,value
2022-07-28T00:00:28.093Z,99214.80
2022-07-28T00:03:07.470Z,99215.20
2022-07-28T00:05:36.093Z,99217.70
2022-07-28T00:08:05.572Z,99220.64
2022-07-28T00:10:34.055Z,99226.73
2022-07-28T00:13:02.528Z,99228.83
2022-07-28T00:15:32.499Z,99229.15
2022-07-28T00:18:01.320Z,99228.30
2022-07-28T00:20:31.009Z,99230.35
2022-07-28T00:22:59.486Z,99230.13
2022-07-28T00:25:27.910Z,99233.99
2022-07-28T00:27:56.410Z,99232.39
2022-07-28T00:30:24.971Z,99232.73
2022-07-28T00:32:53.646Z,99232.83
2022-07-28T00:35:30.513Z,99234.31
2022-07-28T00:38:01.195Z,99232.85
2022-07-28T00:40:48.438Z,99235.55
2022-07-28T00:43:16.881Z,99238.34
2022-07-28T00:45:45.472Z,99239.37
2022-07-28T00:48:13.928Z,99235.23
2022-07-28T00:50:43.848Z,99236.11
2022-07-28T00:53:12.548Z,99233.88
2022-07-28T00:56:03.288Z,99237.76
2022-07-28T00:58:31.038Z,99238.52
2022-07-28T01:00:59.652Z,99239.05
2022-07-28T01:03:29.617Z,99240.00
2022-07-28T01:06:16.726Z,99243.86
2022-07-28T01:09:22.056Z,99241.29
2022-07-28T01:12:09.404Z,99244.06
2022-07-28T01:14:49.846Z,99250.21
2022-07-28T01:17:39.233Z,99252.67
2022-07-28T01:20:34.667Z,99251.31
2022-07-28T01:23:26.205Z,99259.91
2022-07-28T01:26:23.647Z,99261.65
2022-07-28T01:29:01.169Z,99267.08
2022-07-28T01:31:43.944Z,99272.23
2022-07-28T01:34:23.873Z,99270.36
2022-07-28T01:37:05.020Z,99270.48
2022-07-28T01:39:36.556Z,99271.44
2022-07-28T01:42:07.988Z,99275.09
2022-07-28T01:44:41.416Z,99277.83
2022-07-28T01:47:11.945Z,99279.92
2022-07-28T01:49:44.249Z,99282.21
2022-07-28T01:52:13.961Z,99280.08
2022-07-28T01:54:46.183Z,99278.48
2022-07-28T01:57:18.117Z,99274.17
2022-07-28T01:59:48.610Z,99271.14
2022-07-28T02:02:21.508Z,99269.09
2022-07-28T02:04:51.538Z,99268.35
2022-07-28T02:07:21.435Z,99266.66
2022-07-28T02:09:50.456Z,99264.61
2022-07-28T02:12:20.477Z,99263.64
2022-07-28T02:14:50.793Z,99260.08
2022-07-28T02:17:25.657Z,99262.55
2022-07-28T02:19:55.410Z,99266.16
2022-07-28T02:22:27.048Z,99267.89
2022-07-28T02:24:56.206Z,99263.52
2022-07-28T02:27:24.580Z,99268.48
2022-07-28T02:30:11.394Z,99274.89
2022-07-28T02:32:55.584Z,99284.05
2022-07-28T02:35:46.062Z,99290.49
2022-07-28T02:38:28.278Z,99296.01
2022-07-28T02:41:02.827Z,99298.39
2022-07-28T02:43:50.037Z,99298.64
2022-07-28T02:46:22.411Z,99298.95
2022-07-28T02:48:55.119Z,99300.05
2022-07-28T02:51:28.890Z,99292.71
2022-07-28T02:53:58.713Z,99295.67
2022-07-28T02:56:29.029Z,99292.46
2022-07-28T02:58:58.852Z,99298.05
2022-07-28T03:01:27.594Z,99297.56
2022-07-28T03:03:58.034Z,99295.72
2022-07-28T03:06:28.797Z,99296.66
2022-07-28T03:08:58.133Z,99304.52
2022-07-28T03:11:27.877Z,99302.63
2022-07-28T03:13:56.306Z,99307.52
2022-07-28T03:16:24.883Z,99308.30
2022-07-28T03:18:53.325Z,99310.61
2022-07-28T03:21:21.745Z,99308.16
2022-07-28T03:23:51.825Z,99312.19
2022-07-28T03:26:27.912Z,99314.27
2022-07-28T03:28:58.122Z,99319.14
2022-07-28T03:31:29.167Z,99322.67
2022-07-28T03:33:57.883Z,99323.41
2022-07-28T03:36:31.827Z,99324.44
2022-07-28T03:39:06.262Z,99326.60
2022-07-28T03:41:35.475Z,99328.65
2022-07-28T03:44:04.661Z,99338.64
2022-07-28T03:46:34.049Z,99341.38
2022-07-28T03:49:02.546Z,99350.83
2022-07-28T03:51:33.117Z,99351.33
2022-07-28T03:54:01.673Z,99354.22
2022-07-28T03:56:30.178Z,99356.39
2022-07-28T03:58:58.637Z,99349.71
2022-07-28T04:01:27.093Z,99347.28
2022-07-28T04:03:55.473Z,99342.18
2022-07-28T04:06:24.078Z,99344.91
2022-07-28T04:08:52.441Z,99342.32
2022-07-28T04:11:20.813Z,99343.54
2022-07-28T04:13:49.546Z,99342.98
2022-07-28T04:16:18.155Z,99346.73
2022-07-28T04:18:47.650Z,99348.45
2022-07-28T04:21:16.462Z,99354.38
2022-07-28T04:23:44.872Z,99356.34
2022-07-28T04:26:13.833Z,99357.27
2022-07-28T04:28:42.272Z,99361.73
2022-07-28T04:31:10.776Z,99357.56
2022-07-28T04:33:39.785Z,99355.11
2022-07-28T04:36:08.347Z,99357.30
2022-07-28T04:38:37.865Z,99358.23
2022-07-28T04:41:06.501Z,99362.48
2022-07-28T04:43:34.911Z,99362.39
2022-07-28T04:46:03.230Z,99366.66
2022-07-28T04:48:31.475Z,99365.46
2022-07-28T04:50:59.879Z,99369.36
2022-07-28T04:53:29.526Z,99370.84
2022-07-28T04:55:58.231Z,99368.06
2022-07-28T04:58:27.825Z,99366.91
2022-07-28T05:00:59.247Z,99369.27
2022-07-28T05:03:30.409Z,99362.77
2022-07-28T05:06:01.007Z,99366.49
2022-07-28T05:08:29.378Z,99366.92
2022-07-28T05:10:57.733Z,99372.14
2022-07-28T05:13:30.392Z,99377.09
2022-07-28T05:16:02.935Z,99385.61
2022-07-28T05:18:31.200Z,99383.63
2022-07-28T05:20:59.585Z,99386.86
2022-07-28T05:23:28.073Z,99387.31
2022-07-28T05:25:56.974Z,99389.42
2022-07-28T05:28:25.689Z,99390.38
2022-07-28T05:30:54.439Z,99391.05
2022-07-28T05:33:22.700Z,99392.07
2022-07-28T05:36:00.039Z,99394.58
2022-07-28T05:38:29.188Z,99396.81
2022-07-28T05:40:58.102Z,99397.27
2022-07-28T05:43:26.506Z,99398.40
2022-07-28T05:45:54.983Z,99400.92
2022-07-28T05:48:23.482Z,99395.84
2022-07-28T05:50:51.689Z,99400.27
2022-07-28T05:53:21.316Z,99403.88
2022-07-28T05:56:00.633Z,99402.80
2022-07-28T05:58:31.387Z,99407.74
2022-07-28T06:01:03.780Z,99410.55
2022-07-28T06:03:38.441Z,99416.52
2022-07-28T06:06:15.019Z,99416.55
2022-07-28T06:08:46.765Z,99413.52
2022-07-28T06:11:21.651Z,99406.89
2022-07-28T06:13:52.572Z,99410.23
2022-07-28T06:16:23.055Z,99414.95
2022-07-28T06:18:52.622Z,99416.44
2022-07-28T06:21:23.529Z,99418.84
2022-07-28T06:23:51.979Z,99422.05
2022-07-28T06:26:23.480Z,99419.17
2022-07-28T06:28:52.283Z,99418.77
2022-07-28T06:31:20.728Z,99417.39
2022-07-28T06:33:49.015Z,99418.55
2022-07-28T06:36:17.451Z,99412.02
2022-07-28T06:38:45.718Z,99413.98
2022-07-28T06:41:13.971Z,99416.65
2022-07-28T06:43:42.288Z,99415.72
2022-07-28T06:46:10.645Z,99414.56
2022-07-28T06:48:39.634Z,99413.84
2022-07-28T06:51:08.206Z,99416.39
2022-07-28T06:53:36.453Z,99415.31
2022-07-28T06:56:05.400Z,99418.63
2022-07-28T06:58:34.513Z,99420.11
2022-07-28T07:01:08.010Z,99423.08
2022-07-28T07:03:36.550Z,99426.56
2022-07-28T07:06:04.849Z,99423.89
2022-07-28T07:08:34.023Z,99423.89
2022-07-28T07:11:02.444Z,99422.68
2022-07-28T07:13:30.771Z,99424.34
2022-07-28T07:15:59.170Z,99419.66
2022-07-28T07:18:27.787Z,99419.36
2022-07-28T07:20:57.922Z,99418.63
2022-07-28T07:23:26.124Z,99418.70
2022-07-28T07:25:54.582Z,99418.87
2022-07-28T07:28:22.864Z,99420.41
2022-07-28T07:30:51.160Z,99421.40
2022-07-28T07:33:19.763Z,99424.13
2022-07-28T07:35:48.834Z,99422.62
2022-07-28T07:38:17.246Z,99424.97
2022-07-28T07:40:45.646Z,99424.59
2022-07-28T07:43:14.046Z,99428.98
2022-07-28T07:45:42.337Z,99428.54
2022-07-28T07:48:10.709Z,99429.73
2022-07-28T07:50:39.069Z,99425.14
2022-07-28T07:53:07.313Z,99422.58
2022-07-28T07:55:37.734Z,99422.39
2022-07-28T07:58:07.169Z,99425.59
2022-07-28T08:00:35.985Z,99428.06
2022-07-28T08:03:04.788Z,99430.42
2022-07-28T08:05:39.879Z,99430.63
2022-07-28T08:08:08.883Z,99432.49
2022-07-28T08:10:39.534Z,99440.02
2022-07-28T08:13:08.406Z,99441.20
2022-07-28T08:15:36.860Z,99440.64
2022-07-28T08:18:05.243Z,99441.95
2022-07-28T08:20:33.491Z,99441.17
2022-07-28T08:23:01.830Z,99442.31
2022-07-28T08:25:30.030Z,99439.81
2022-07-28T08:27:58.286Z,99435.06
2022-07-28T08:30:31.994Z,99439.39
2022-07-28T08:33:03.143Z,99438.35
2022-07-28T08:35:34.626Z,99436.33
2022-07-28T08:38:07.185Z,99437.08
2022-07-28T08:40:38.836Z,99435.55
2022-07-28T08:43:23.710Z,99434.29
2022-07-28T08:45:58.067Z,99436.83
2022-07-28T08:48:31.627Z,99435.88
2022-07-28T08:51:09.710Z,99434.55
2022-07-28T08:53:40.301Z,99429.40
2022-07-28T08:56:12.414Z,99433.17
2022-07-28T08:58:41.072Z,99436.58
2022-07-28T09:01:11.061Z,99433.02
2022-07-28T09:03:39.835Z,99428.56
2022-07-28T09:06:08.460Z,99428.95
2022-07-28T09:08:37.404Z,99429.39
2022-07-28T09:11:08.360Z,99429.42
2022-07-28T09:13:36.829Z,99425.86
2022-07-28T09:16:07.009Z,99423.98
2022-07-28T09:18:35.505Z,99421.15
2022-07-28T09:21:03.889Z,99415.83
2022-07-28T09:23:46.633Z,99414.25
2022-07-28T09:26:15.632Z,99412.94
2022-07-28T09:28:55.273Z,99409.77
2022-07-28T09:31:26.109Z,99405.13
2022-07-28T09:33:56.140Z,99404.37
2022-07-28T09:36:24.659Z,99408.03
2022-07-28T09:38:54.323Z,99405.91
2022-07-28T09:41:24.075Z,99406.84
2022-07-28T09:43:55.372Z,99407.86
2022-07-28T09:46:26.138Z,99407.24
2022-07-28T09:49:01.324Z,99405.30
2022-07-28T09:51:31.943Z,99406.80
2022-07-28T09:54:12.710Z,99406.40
2022-07-28T09:56:44.289Z,99405.36
2022-07-28T09:59:14.898Z,99401.23
2022-07-28T10:01:52.685Z,99402.66
2022-07-28T10:04:31.757Z,99400.48
2022-07-28T10:07:14.160Z,99403.27
2022-07-28T10:09:43.457Z,99399.67
2022-07-28T10:12:20.956Z,99400.73
2022-07-28T10:14:52.063Z,99406.61
2022-07-28T10:17:34.361Z,99408.98
2022-07-28T10:20:06.176Z,99407.66
2022-07-28T10:22:42.782Z,99404.77
2022-07-28T10:25:14.395Z,99402.05
2022-07-28T10:27:47.632Z,99404.85
2022-07-28T10:30:16.245Z,99398.40
2022-07-28T10:32:46.272Z,99395.92
2022-07-28T10:35:17.606Z,99393.55
2022-07-28T10:37:54.150Z,99393.76
2022-07-28T10:40:26.849Z,99389.34
2022-07-28T10:42:56.740Z,99391.52
2022-07-28T10:45:42.032Z,99385.38
2022-07-28T10:48:15.569Z,99382.97
2022-07-28T10:50:45.028Z,99382.50
2022-07-28T10:53:26.415Z,99381.86
2022-07-28T10:56:07.729Z,99373.86
2022-07-28T10:59:10.522Z,99374.73
2022-07-28T11:01:50.511Z,99375.23
2022-07-28T11:04:41.060Z,99377.57
2022-07-28T11:07:15.259Z,99376.60
2022-07-28T11:09:44.868Z,99371.09
2022-07-28T11:12:16.041Z,99372.09
2022-07-28T11:14:45.103Z,99373.27
2022-07-28T11:17:15.000Z,99375.88
2022-07-28T11:22:35.003Z,99369.52
2022-07-28T11:25:18.444Z,99371.21
2022-07-28T11:27:50.916Z,99368.30
2022-07-28T11:30:21.441Z,99365.14
2022-07-28T11:32:55.839Z,99363.98
2022-07-28T11:35:25.577Z,99366.38
2022-07-28T11:38:03.320Z,99369.94
2022-07-28T11:40:42.591Z,99369.67
2022-07-28T11:43:36.898Z,99369.13
2022-07-28T11:46:11.191Z,99363.58
2022-07-28T11:48:43.736Z,99360.71
2022-07-28T11:51:13.360Z,99358.45
2022-07-28T11:53:53.753Z,99360.33
2022-07-28T11:56:27.937Z,99358.36
2022-07-28T11:59:01.328Z,99361.09
2022-07-28T12:01:31.985Z,99359.46
2022-07-28T12:04:01.578Z,99357.40
2022-07-28T12:06:37.522Z,99352.84
2022-07-28T12:09:08.423Z,99349.25
2022-07-28T12:11:38.915Z,99353.02
2022-07-28T12:14:09.693Z,99349.21
2022-07-28T12:16:41.253Z,99347.05
2022-07-28T12:19:11.283Z,99340.02
2022-07-28T12:21:47.697Z,99337.56
2022-07-28T12:24:20.113Z,99342.94
2022-07-28T12:26:50.574Z,99334.86
2022-07-28T12:29:20.776Z,99331.89
2022-07-28T12:32:01.075Z,99333.83
2022-07-28T12:34:31.094Z,99328.94
2022-07-28T12:37:04.569Z,99329.41
2022-07-28T12:39:42.851Z,99326.04
2022-07-28T12:42:13.397Z,99327.64
2022-07-28T12:44:43.958Z,99324.98
2022-07-28T12:47:13.767Z,99324.48
2022-07-28T12:49:44.345Z,99326.29
2022-07-28T12:52:24.813Z,99326.23
2022-07-28T12:54:55.774Z,99323.79
2022-07-28T12:57:48.146Z,99319.77
2022-07-28T13:00:22.882Z,99315.70
2022-07-28T13:02:56.187Z,99310.98
2022-07-28T13:05:33.211Z,99302.77
2022-07-28T13:08:03.623Z,99307.19
2022-07-28T13:10:33.516Z,99303.73
2022-07-28T13:13:07.775Z,99307.93
2022-07-28T13:15:36.275Z,99306.96
2022-07-28T13:18:05.163Z,99309.26
2022-07-28T13:20:50.718Z,99310.90
2022-07-28T13:23:19.054Z,99315.06
2022-07-28T13:25:47.891Z,99311.79
2022-07-28T13:28:28.573Z,99319.39
2022-07-28T13:30:56.936Z,99319.17
2022-07-28T13:33:26.948Z,99316.84
2022-07-28T13:35:56.698Z,99314.56
2022-07-28T13:38:25.148Z,99314.81
2022-07-28T13:40:53.463Z,99314.42
2022-07-28T13:43:21.843Z,99309.23
2022-07-28T13:45:50.180Z,99307.70
2022-07-28T13:48:18.520Z,99305.38
2022-07-28T13:50:48.163Z,99302.16
2022-07-28T13:53:17.867Z,99305.15
2022-07-28T13:55:46.416Z,99306.67
2022-07-28T13:58:15.341Z,99306.17
2022-07-28T14:00:43.889Z,99311.63
2022-07-28T14:03:12.964Z,99308.21
2022-07-28T14:05:42.276Z,99305.71
2022-07-28T14:08:12.539Z,99303.90
2022-07-28T14:10:40.914Z,99302.44
2022-07-28T14:13:16.582Z,99301.08
2022-07-28T14:15:47.124Z,99303.06
2022-07-28T14:18:15.377Z,99298.94
2022-07-28T14:20:43.703Z,99297.61
2022-07-28T14:23:11.926Z,99303.98
2022-07-28T14:25:49.213Z,99308.39
2022-07-28T14:28:18.716Z,99312.07
2022-07-28T14:30:46.957Z,99312.43
2022-07-28T14:33:15.307Z,99315.71
2022-07-28T14:35:43.633Z,99310.15
2022-07-28T14:38:51.178Z,99297.50
2022-07-28T14:41:01.905Z,99300.57
2022-07-28T14:43:30.257Z,99298.61
2022-07-28T14:46:13.611Z,99297.48
2022-07-28T14:48:46.386Z,99298.91
2022-07-28T14:51:15.947Z,99294.92
2022-07-28T14:53:46.416Z,99293.05
2022-07-28T14:56:20.112Z,99290.16
2022-07-28T14:58:48.376Z,99294.19
2022-07-28T15:01:16.732Z,99296.41
2022-07-28T15:03:45.603Z,99295.33
2022-07-28T15:06:13.845Z,99291.56
2022-07-28T15:08:42.049Z,99288.64
2022-07-28T15:11:10.423Z,99286.25
2022-07-28T15:13:38.714Z,99284.33
2022-07-28T15:16:07.309Z,99286.41
2022-07-28T15:18:36.035Z,99282.64
2022-07-28T15:21:06.694Z,99280.98
2022-07-28T15:23:34.893Z,99276.87
2022-07-28T15:26:03.185Z,99274.67
2022-07-28T15:28:31.553Z,99271.53
2022-07-28T15:30:59.953Z,99268.84
2022-07-28T15:33:28.274Z,99268.05
2022-07-28T15:36:00.596Z,99266.23
2022-07-28T15:38:31.501Z,99268.63
2022-07-28T15:41:00.145Z,99267.16
2022-07-28T15:43:30.734Z,99264.42
2022-07-28T15:46:06.176Z,99261.91
2022-07-28T15:48:34.961Z,99270.37
2022-07-28T15:51:03.327Z,99264.37
2022-07-28T15:53:31.715Z,99265.35
2022-07-28T15:56:00.019Z,99267.21
2022-07-28T15:58:28.391Z,99266.13
2022-07-28T16:00:56.709Z,99264.09
2022-07-28T16:03:30.679Z,99265.08
2022-07-28T16:05:59.300Z,99266.50
2022-07-28T16:08:27.682Z,99265.89
2022-07-28T16:10:56.018Z,99264.83
2022-07-28T16:13:33.391Z,99267.20
2022-07-28T16:16:10.779Z,99266.90
2022-07-28T16:18:42.875Z,99269.67
2022-07-28T16:21:11.596Z,99268.77
2022-07-28T16:23:39.937Z,99265.41
2022-07-28T16:26:09.529Z,99269.27
2022-07-28T16:28:38.099Z,99267.16
2022-07-28T16:31:06.542Z,99269.36
2022-07-28T16:33:34.854Z,99271.71
2022-07-28T16:36:03.524Z,99268.14
2022-07-28T16:38:31.800Z,99268.91
2022-07-28T16:41:00.086Z,99269.78
2022-07-28T16:43:28.581Z,99273.36
2022-07-28T16:45:56.912Z,99275.77
2022-07-28T16:48:25.177Z,99274.90
2022-07-28T16:50:56.826Z,99272.16
2022-07-28T16:53:25.206Z,99276.11
2022-07-28T16:55:53.606Z,99274.86
2022-07-28T16:58:22.717Z,99272.88
2022-07-28T17:00:51.014Z,99277.08
2022-07-28T17:03:19.345Z,99276.13
2022-07-28T17:05:48.653Z,99276.17
2022-07-28T17:08:16.962Z,99278.27
2022-07-28T17:10:46.757Z,99282.29
2022-07-28T17:13:16.442Z,99285.11
2022-07-28T17:15:44.717Z,99283.56
2022-07-28T17:18:13.076Z,99286.22
2022-07-28T17:20:42.100Z,99288.36
2022-07-28T17:23:10.515Z,99288.29
2022-07-28T17:26:09.015Z,99289.60
2022-07-28T17:28:27.563Z,99287.09
2022-07-28T17:30:56.105Z,99289.02
2022-07-28T17:33:26.918Z,99293.04
2022-07-28T17:35:56.301Z,99293.30
2022-07-28T17:38:30.986Z,99290.62
2022-07-28T17:41:04.479Z,99293.83
2022-07-28T17:43:33.070Z,99299.09
2022-07-28T17:46:03.011Z,99298.25
2022-07-28T17:48:38.527Z,99296.91
2022-07-28T17:51:07.022Z,99303.00
2022-07-28T17:53:39.044Z,99309.90
2022-07-28T17:56:08.998Z,99317.11
2022-07-28T17:58:38.311Z,99315.27
2022-07-28T18:01:12.380Z,99317.10
2022-07-28T18:03:58.060Z,99315.13
2022-07-28T18:06:32.700Z,99318.77
2022-07-28T18:09:08.311Z,99321.67
2022-07-28T18:11:57.406Z,99321.98
2022-07-28T18:14:28.384Z,99320.48
2022-07-28T18:16:57.980Z,99317.95
2022-07-28T18:19:27.211Z,99323.45
2022-07-28T18:21:56.745Z,99320.04
2022-07-28T18:24:26.598Z,99322.78
2022-07-28T18:26:54.999Z,99323.31
2022-07-28T18:29:24.845Z,99326.17
2022-07-28T18:31:53.646Z,99327.05
2022-07-28T18:34:24.744Z,99326.19
2022-07-28T18:36:54.509Z,99327.00
2022-07-28T18:39:22.983Z,99330.21
2022-07-28T18:41:55.499Z,99332.23
2022-07-28T18:44:23.769Z,99337.20
2022-07-28T18:46:52.192Z,99341.81
2022-07-28T18:49:21.763Z,99344.63
2022-07-28T18:51:50.103Z,99342.58
2022-07-28T18:54:27.148Z,99348.85
2022-07-28T18:56:56.458Z,99350.39
2022-07-28T18:59:25.121Z,99353.05
2022-07-28T19:01:53.556Z,99358.48
2022-07-28T19:04:22.895Z,99361.16
2022-07-28T19:06:51.535Z,99361.95
2022-07-28T19:09:20.165Z,99361.09
2022-07-28T19:11:48.505Z,99361.63
2022-07-28T19:14:17.558Z,99362.13
2022-07-28T19:16:46.357Z,99369.41
2022-07-28T19:19:14.839Z,99373.27
2022-07-28T19:21:43.870Z,99371.87
2022-07-28T19:24:14.186Z,99367.80
2022-07-28T19:26:45.363Z,99364.29
2022-07-28T19:29:14.090Z,99367.23
2022-07-28T19:31:42.981Z,99366.98
2022-07-28T19:34:11.511Z,99368.33
2022-07-28T19:36:41.851Z,99367.90
2022-07-28T19:39:12.315Z,99369.71
2022-07-28T19:41:40.933Z,99366.63
2022-07-28T19:44:09.616Z,99370.67
2022-07-28T19:46:39.274Z,99368.55
2022-07-28T19:49:09.369Z,99366.09
2022-07-28T19:51:38.383Z,99363.54
2022-07-28T19:54:06.737Z,99367.73
2022-07-28T19:56:35.144Z,99365.40
2022-07-28T19:59:03.397Z,99367.71
2022-07-28T20:01:31.841Z,99365.05
2022-07-28T20:04:05.001Z,99367.48
2022-07-28T20:06:34.517Z,99372.64
2022-07-28T20:09:04.449Z,99378.95
2022-07-28T20:11:33.203Z,99380.63
2022-07-28T20:14:01.706Z,99380.76
2022-07-28T20:16:30.608Z,99379.36
2022-07-28T20:18:59.547Z,99377.99
2022-07-28T20:21:27.890Z,99378.41
2022-07-28T20:23:57.311Z,99378.08
2022-07-28T20:26:26.966Z,99382.84
2022-07-28T20:28:58.481Z,99382.88
2022-07-28T20:31:27.090Z,99380.41
2022-07-28T20:33:56.671Z,99386.60
2022-07-28T20:36:29.503Z,99386.98
2022-07-28T20:38:58.271Z,99389.02
2022-07-28T20:41:26.510Z,99387.51
2022-07-28T20:44:26.052Z,99388.30
2022-07-28T20:46:43.040Z,99392.75
2022-07-28T20:49:11.295Z,99389.50
2022-07-28T20:51:39.781Z,99397.30
2022-07-28T20:54:19.515Z,99396.66
2022-07-28T20:56:47.931Z,99391.91
2022-07-28T20:59:16.444Z,99391.91
2022-07-28T21:01:44.806Z,99388.79
2022-07-28T21:04:13.683Z,99390.44
2022-07-28T21:06:51.161Z,99389.77
2022-07-28T21:09:21.221Z,99389.15
2022-07-28T21:11:49.583Z,99391.40
2022-07-28T21:14:19.028Z,99395.93
2022-07-28T21:16:47.775Z,99391.60
2022-07-28T21:19:16.056Z,99391.95
2022-07-28T21:21:44.283Z,99392.96
2022-07-28T21:24:12.631Z,99391.89
2022-07-28T21:26:42.934Z,99392.88
2022-07-28T21:29:12.476Z,99396.19
2022-07-28T21:32:02.326Z,99394.90
2022-07-28T21:34:33.965Z,99398.96
2022-07-28T21:37:07.079Z,99406.36
2022-07-28T21:39:36.740Z,99410.66
2022-07-28T21:42:08.094Z,99409.69
2022-07-28T21:44:37.628Z,99408.52
2022-07-28T21:47:06.097Z,99408.23
2022-07-28T21:49:34.378Z,99411.27
2022-07-28T21:52:02.597Z,99408.07
2022-07-28T21:54:30.999Z,99416.30
2022-07-28T21:56:59.274Z,99418.73
2022-07-28T21:59:27.471Z,99423.85
2022-07-28T22:01:55.773Z,99427.05
2022-07-28T22:04:24.059Z,99427.19
2022-07-28T22:06:54.201Z,99427.89
2022-07-28T22:09:22.637Z,99431.20
2022-07-28T22:11:50.925Z,99436.67
2022-07-28T22:14:19.454Z,99437.48
2022-07-28T22:16:48.051Z,99439.29
2022-07-28T22:19:16.250Z,99439.05
2022-07-28T22:21:44.443Z,99444.48
2022-07-28T22:24:13.045Z,99447.73
2022-07-28T22:26:41.494Z,99440.98
2022-07-28T22:29:09.673Z,99439.98
2022-07-28T22:31:38.000Z,99438.55
2022-07-28T22:34:06.235Z,99436.27
2022-07-28T22:36:34.482Z,99442.14
2022-07-28T22:39:02.748Z,99441.36
2022-07-28T22:41:30.974Z,99444.70
2022-07-28T22:43:59.257Z,99443.52
2022-07-28T22:46:27.609Z,99443.39
2022-07-28T22:48:55.897Z,99440.80
2022-07-28T22:51:24.158Z,99444.25
2022-07-28T22:53:52.400Z,99441.34
2022-07-28T22:56:20.642Z,99442.74
2022-07-28T22:58:49.924Z,99441.60
2022-07-28T23:01:18.189Z,99442.70
2022-07-28T23:03:47.393Z,99438.87
2022-07-28T23:06:15.973Z,99437.46
2022-07-28T23:08:44.211Z,99437.71
2022-07-28T23:11:12.378Z,99439.09
2022-07-28T23:13:41.099Z,99438.69
2022-07-28T23:16:11.004Z,99438.73
2022-07-28T23:18:40.514Z,99436.77
2022-07-28T23:21:09.197Z,99439.38
2022-07-28T23:23:38.105Z,99441.24
2022-07-28T23:26:06.314Z,99444.64
2022-07-28T23:28:36.518Z,99443.30
2022-07-28T23:31:05.547Z,99442.87
2022-07-28T23:33:55.061Z,99444.54
2022-07-28T23:36:27.455Z,99441.34
2022-07-28T23:38:57.729Z,99434.01
2022-07-28T23:41:27.137Z,99432.80
2022-07-28T23:43:55.588Z,99431.73
2022-07-28T23:46:24.617Z,99431.77
2022-07-28T23:48:53.120Z,99433.42
2022-07-28T23:51:22.615Z,99431.59
2022-07-28T23:54:09.431Z,99433.30
2022-07-28T23:56:38.407Z,99432.48
2022-07-28T23:59:09.246Z,99435.67
